Terminal Aerodrome Forecast
Issued by NWS

Home | Current Version | Previous Version | Graphics & Text | Print | Product List | Glossary On
Versions: 1 2 3 4 5 6 7 8 9 10 11 12 13 14 15 16 17 18 19 20 21
000
FTUS43 KGRB 311721
TAFATW
TAF
KATW 311721Z 3118/0118 36008KT P6SM SCT040
      TEMPO 3119/3123 BKN040
     FM010000 03010KT P6SM SCT040
     FM010600 36008KT P6SM FEW035
     FM011500 02010KT P6SM BKN035=

USA.gov is the U.S. government's official web portal to all federal, state and local government web resources and services.